TAF LEBL
LEBL 072300Z 0800/0824 26007KT 9999 FEW030 TX15/0812Z TN08/0806Z PROB30 TEMPO 0800/0803 RA BKN040 BECMG 0802/0804 24014KT BECMG 0806/0808 28020KT TEMPO 0805/0816 28022G42KT=
METAR LEBL
LEBL 080430Z 24009KT 9999 -RA FEW025 13/07 Q1004 NOSIG=
LEBL 080400Z 26008KT 210V290 9999 FEW025 14/07 Q1004 NOSIG=
LEBL 080330Z 26008KT 210V300 9999 FEW025 14/10 Q1005 NOSIG=
COR LEBL 080300Z 24013KT 9999 FEW025 14/09 Q1005 NOSIG=
LEBL 080230Z 24009KT 9999 FEW056 13/10 Q1005 NOSIG=
WC LEBL
WS LEBL
WV LEBL